sensor_id;sensor_type;location;lat;lon;timestamp;P1;durP1;ratioP1;P2;durP2;ratioP2
11269;SDS011;5692;48.956;9.200;2022-09-03T00:00:19;206.70;;;196.80;;
11269;SDS011;5692;48.956;9.200;2022-09-03T00:13:54;210.20;;;200.15;;
11269;SDS011;5692;48.956;9.200;2022-09-03T00:16:00;220.13;;;209.63;;
11269;SDS011;5692;48.956;9.200;2022-09-03T00:18:30;205.63;;;195.77;;
11269;SDS011;5692;48.956;9.200;2022-09-03T00:21:09;208.95;;;198.95;;
11269;SDS011;5692;48.956;9.200;2022-09-03T00:23:42;199.88;;;190.30;;
11269;SDS011;5692;48.956;9.200;2022-09-03T00:28:41;202.30;;;192.63;;
11269;SDS011;5692;48.956;9.200;2022-09-03T00:31:10;214.07;;;203.82;;
11269;SDS011;5692;48.956;9.200;2022-09-03T00:33:42;210.07;;;200.02;;
11269;SDS011;5692;48.956;9.200;2022-09-03T00:36:15;210.07;;;200.00;;
11269;SDS011;5692;48.956;9.200;2022-09-03T00:38:45;217.20;;;206.80;;
11269;SDS011;5692;48.956;9.200;2022-09-03T00:46:59;206.55;;;196.65;;
11269;SDS011;5692;48.956;9.200;2022-09-03T00:52:12;202.15;;;192.45;;
11269;SDS011;5692;48.956;9.200;2022-09-03T00:57:33;203.95;;;194.18;;
11269;SDS011;5692;48.956;9.200;2022-09-03T01:29:02;194.63;;;185.30;;
11269;SDS011;5692;48.956;9.200;2022-09-03T01:31:41;198.45;;;188.95;;
11269;SDS011;5692;48.956;9.200;2022-09-03T01:36:47;188.00;;;178.98;;
11269;SDS011;5692;48.956;9.200;2022-09-03T01:44:42;193.95;;;184.65;;
11269;SDS011;5692;48.956;9.200;2022-09-03T01:57:57;202.95;;;193.25;;
11269;SDS011;5692;48.956;9.200;2022-09-03T02:00:28;200.75;;;191.15;;
11269;SDS011;5692;48.956;9.200;2022-09-03T02:03:00;202.15;;;192.48;;
11269;SDS011;5692;48.956;9.200;2022-09-03T02:05:30;186.77;;;177.85;;
11269;SDS011;5692;48.956;9.200;2022-09-03T02:07:57;194.65;;;185.35;;
11269;SDS011;5692;48.956;9.200;2022-09-03T02:10:28;185.90;;;177.00;;
11269;SDS011;5692;48.956;9.200;2022-09-03T02:15:44;201.50;;;191.88;;
11269;SDS011;5692;48.956;9.200;2022-09-03T02:18:14;199.45;;;189.90;;
11269;SDS011;5692;48.956;9.200;2022-09-03T02:20:41;205.57;;;195.73;;
11269;SDS011;5692;48.956;9.200;2022-09-03T02:23:08;204.60;;;194.82;;
11269;SDS011;5692;48.956;9.200;2022-09-03T02:25:40;190.52;;;181.43;;
11269;SDS011;5692;48.956;9.200;2022-09-03T02:28:09;188.38;;;179.38;;
11269;SDS011;5692;48.956;9.200;2022-09-03T02:30:37;197.35;;;187.90;;
11269;SDS011;5692;48.956;9.200;2022-09-03T02:33:03;192.70;;;183.50;;
11269;SDS011;5692;48.956;9.200;2022-09-03T02:35:30;192.95;;;183.70;;
11269;SDS011;5692;48.956;9.200;2022-09-03T02:37:56;191.05;;;181.90;;
11269;SDS011;5692;48.956;9.200;2022-09-03T02:40:24;185.87;;;176.97;;
11269;SDS011;5692;48.956;9.200;2022-09-03T02:42:50;177.15;;;168.68;;
11269;SDS011;5692;48.956;9.200;2022-09-03T02:45:24;183.55;;;174.75;;
11269;SDS011;5692;48.956;9.200;2022-09-03T02:47:53;188.00;;;179.00;;
11269;SDS011;5692;48.956;9.200;2022-09-03T02:50:20;175.73;;;167.32;;
11269;SDS011;5692;48.956;9.200;2022-09-03T02:52:46;191.35;;;182.18;;
11269;SDS011;5692;48.956;9.200;2022-09-03T02:55:12;191.70;;;182.50;;
11269;SDS011;5692;48.956;9.200;2022-09-03T02:57:40;194.60;;;185.30;;
11269;SDS011;5692;48.956;9.200;2022-09-03T03:00:07;195.45;;;186.10;;
11269;SDS011;5692;48.956;9.200;2022-09-03T03:02:40;188.77;;;179.77;;
11269;SDS011;5692;48.956;9.200;2022-09-03T03:05:09;190.18;;;181.07;;
11269;SDS011;5692;48.956;9.200;2022-09-03T03:07:40;184.05;;;175.23;;
11269;SDS011;5692;48.956;9.200;2022-09-03T03:10:06;196.13;;;186.73;;
11269;SDS011;5692;48.956;9.200;2022-09-03T03:12:32;181.55;;;172.85;;
11269;SDS011;5692;48.956;9.200;2022-09-03T03:15:04;188.80;;;179.77;;
11269;SDS011;5692;48.956;9.200;2022-09-03T03:17:31;189.02;;;179.98;;
11269;SDS011;5692;48.956;9.200;2022-09-03T03:19:57;185.48;;;176.60;;
11269;SDS011;5692;48.956;9.200;2022-09-03T03:22:26;201.30;;;191.65;;
11269;SDS011;5692;48.956;9.200;2022-09-03T03:24:52;199.60;;;190.02;;
11269;SDS011;5692;48.956;9.200;2022-09-03T03:27:20;191.85;;;182.65;;
11269;SDS011;5692;48.956;9.200;2022-09-03T03:29:47;199.63;;;190.05;;
11269;SDS011;5692;48.956;9.200;2022-09-03T03:32:17;192.95;;;183.73;;
11269;SDS011;5692;48.956;9.200;2022-09-03T03:34:43;203.15;;;193.45;;
11269;SDS011;5692;48.956;9.200;2022-09-03T03:37:09;178.90;;;170.32;;
11269;SDS011;5692;48.956;9.200;2022-09-03T03:39:38;191.38;;;182.18;;
11269;SDS011;5692;48.956;9.200;2022-09-03T03:42:04;192.93;;;183.68;;
11269;SDS011;5692;48.956;9.200;2022-09-03T03:44:30;195.30;;;185.93;;
11269;SDS011;5692;48.956;9.200;2022-09-03T03:47:01;197.70;;;188.23;;
11269;SDS011;5692;48.956;9.200;2022-09-03T03:49:29;192.35;;;183.13;;
11269;SDS011;5692;48.956;9.200;2022-09-03T03:51:56;184.00;;;175.20;;
11269;SDS011;5692;48.956;9.200;2022-09-03T03:54:22;202.27;;;192.57;;
11269;SDS011;5692;48.956;9.200;2022-09-03T03:56:50;192.60;;;183.37;;
11269;SDS011;5692;48.956;9.200;2022-09-03T03:59:16;190.75;;;181.65;;
11269;SDS011;5692;48.956;9.200;2022-09-03T04:01:45;202.40;;;192.70;;
11269;SDS011;5692;48.956;9.200;2022-09-03T04:04:12;199.15;;;189.63;;
11269;SDS011;5692;48.956;9.200;2022-09-03T04:06:40;201.05;;;191.43;;
11269;SDS011;5692;48.956;9.200;2022-09-03T04:09:07;201.00;;;191.38;;
11269;SDS011;5692;48.956;9.200;2022-09-03T04:11:33;207.15;;;197.25;;
11269;SDS011;5692;48.956;9.200;2022-09-03T04:14:05;210.18;;;200.13;;
11269;SDS011;5692;48.956;9.200;2022-09-03T04:16:31;196.50;;;187.10;;
11269;SDS011;5692;48.956;9.200;2022-09-03T04:18:58;192.80;;;183.57;;
11269;SDS011;5692;48.956;9.200;2022-09-03T04:21:25;206.50;;;196.60;;
11269;SDS011;5692;48.956;9.200;2022-09-03T04:23:54;188.93;;;179.88;;
11269;SDS011;5692;48.956;9.200;2022-09-03T04:26:24;180.48;;;171.82;;
11269;SDS011;5692;48.956;9.200;2022-09-03T04:28:52;175.20;;;166.80;;
11269;SDS011;5692;48.956;9.200;2022-09-03T04:31:19;187.57;;;178.60;;
11269;SDS011;5692;48.956;9.200;2022-09-03T04:33:47;205.77;;;195.93;;
11269;SDS011;5692;48.956;9.200;2022-09-03T04:36:17;195.07;;;185.75;;
11269;SDS011;5692;48.956;9.200;2022-09-03T04:38:44;196.73;;;187.32;;
11269;SDS011;5692;48.956;9.200;2022-09-03T04:41:12;204.68;;;194.90;;
11269;SDS011;5692;48.956;9.200;2022-09-03T04:43:39;206.30;;;196.43;;
11269;SDS011;5692;48.956;9.200;2022-09-03T04:46:09;188.52;;;179.52;;
11269;SDS011;5692;48.956;9.200;2022-09-03T04:48:36;192.13;;;182.93;;
11269;SDS011;5692;48.956;9.200;2022-09-03T04:53:35;195.18;;;185.85;;
11269;SDS011;5692;48.956;9.200;2022-09-03T04:56:11;201.45;;;191.82;;
11269;SDS011;5692;48.956;9.200;2022-09-03T04:58:37;178.23;;;169.73;;
11269;SDS011;5692;48.956;9.200;2022-09-03T05:01:06;197.90;;;188.43;;
11269;SDS011;5692;48.956;9.200;2022-09-03T05:03:37;198.25;;;188.77;;
11269;SDS011;5692;48.956;9.200;2022-09-03T05:06:06;194.23;;;184.93;;
11269;SDS011;5692;48.956;9.200;2022-09-03T05:08:33;199.48;;;189.93;;
11269;SDS011;5692;48.956;9.200;2022-09-03T05:11:01;198.48;;;188.98;;
11269;SDS011;5692;48.956;9.200;2022-09-03T05:13:30;193.20;;;183.95;;
11269;SDS011;5692;48.956;9.200;2022-09-03T05:16:03;196.50;;;187.10;;
11269;SDS011;5692;48.956;9.200;2022-09-03T05:18:32;183.90;;;175.10;;
11269;SDS011;5692;48.956;9.200;2022-09-03T05:21:04;189.32;;;180.25;;
11269;SDS011;5692;48.956;9.200;2022-09-03T05:23:31;195.95;;;186.55;;
11269;SDS011;5692;48.956;9.200;2022-09-03T05:26:01;192.45;;;183.25;;
11269;SDS011;5692;48.956;9.200;2022-09-03T05:28:28;186.63;;;177.70;;
11269;SDS011;5692;48.956;9.200;2022-09-03T05:33:26;192.05;;;182.85;;
11269;SDS011;5692;48.956;9.200;2022-09-03T05:35:53;190.98;;;181.82;;
11269;SDS011;5692;48.956;9.200;2022-09-03T05:38:25;186.55;;;177.65;;
11269;SDS011;5692;48.956;9.200;2022-09-03T05:40:51;182.88;;;174.10;;
11269;SDS011;5692;48.956;9.200;2022-09-03T05:43:17;177.97;;;169.43;;
11269;SDS011;5692;48.956;9.200;2022-09-03T05:45:45;180.23;;;171.63;;
11269;SDS011;5692;48.956;9.200;2022-09-03T05:48:15;173.98;;;165.68;;
11269;SDS011;5692;48.956;9.200;2022-09-03T05:50:41;167.27;;;159.27;;
11269;SDS011;5692;48.956;9.200;2022-09-03T05:53:09;164.60;;;156.70;;
11269;SDS011;5692;48.956;9.200;2022-09-03T05:55:35;183.20;;;174.40;;
11269;SDS011;5692;48.956;9.200;2022-09-03T05:58:01;171.52;;;163.32;;
11269;SDS011;5692;48.956;9.200;2022-09-03T06:00:27;182.90;;;174.13;;
11269;SDS011;5692;48.956;9.200;2022-09-03T06:02:53;179.33;;;170.73;;
11269;SDS011;5692;48.956;9.200;2022-09-03T06:05:19;181.27;;;172.57;;
11269;SDS011;5692;48.956;9.200;2022-09-03T06:07:45;183.10;;;174.32;;
11269;SDS011;5692;48.956;9.200;2022-09-03T06:10:14;172.07;;;163.85;;
11269;SDS011;5692;48.956;9.200;2022-09-03T06:12:41;181.60;;;172.90;;
11269;SDS011;5692;48.956;9.200;2022-09-03T06:15:10;180.48;;;171.82;;
11269;SDS011;5692;48.956;9.200;2022-09-03T06:17:37;183.45;;;174.65;;
11269;SDS011;5692;48.956;9.200;2022-09-03T06:20:03;176.50;;;168.05;;
11269;SDS011;5692;48.956;9.200;2022-09-03T06:22:32;162.38;;;154.57;;
11269;SDS011;5692;48.956;9.200;2022-09-03T06:24:58;171.90;;;163.68;;
11269;SDS011;5692;48.956;9.200;2022-09-03T06:27:24;164.18;;;156.30;;
11269;SDS011;5692;48.956;9.200;2022-09-03T06:29:52;173.50;;;165.20;;
11269;SDS011;5692;48.956;9.200;2022-09-03T06:32:18;182.93;;;174.13;;
11269;SDS011;5692;48.956;9.200;2022-09-03T06:34:47;193.65;;;184.38;;
11269;SDS011;5692;48.956;9.200;2022-09-03T06:37:13;170.82;;;162.63;;
11269;SDS011;5692;48.956;9.200;2022-09-03T06:39:39;180.65;;;172.00;;
11269;SDS011;5692;48.956;9.200;2022-09-03T06:42:05;186.63;;;177.68;;
11269;SDS011;5692;48.956;9.200;2022-09-03T06:44:31;182.82;;;174.07;;
11269;SDS011;5692;48.956;9.200;2022-09-03T06:46:57;187.15;;;178.18;;
11269;SDS011;5692;48.956;9.200;2022-09-03T06:49:25;194.70;;;185.38;;
11269;SDS011;5692;48.956;9.200;2022-09-03T06:51:51;200.97;;;191.37;;
11269;SDS011;5692;48.956;9.200;2022-09-03T06:54:17;181.65;;;172.95;;
11269;SDS011;5692;48.956;9.200;2022-09-03T06:56:43;196.00;;;186.60;;
11269;SDS011;5692;48.956;9.200;2022-09-03T06:59:13;200.15;;;190.55;;
11269;SDS011;5692;48.956;9.200;2022-09-03T07:01:39;185.60;;;176.70;;
11269;SDS011;5692;48.956;9.200;2022-09-03T07:04:06;197.23;;;187.80;;
11269;SDS011;5692;48.956;9.200;2022-09-03T07:06:36;201.23;;;191.60;;
11269;SDS011;5692;48.956;9.200;2022-09-03T07:09:05;180.30;;;171.70;;
11269;SDS011;5692;48.956;9.200;2022-09-03T07:11:32;189.90;;;180.80;;
11269;SDS011;5692;48.956;9.200;2022-09-03T07:14:02;197.80;;;188.32;;
11269;SDS011;5692;48.956;9.200;2022-09-03T07:16:33;192.27;;;183.05;;
11269;SDS011;5692;48.956;9.200;2022-09-03T07:18:59;188.93;;;179.90;;
11269;SDS011;5692;48.956;9.200;2022-09-03T07:21:28;182.80;;;174.05;;
11269;SDS011;5692;48.956;9.200;2022-09-03T07:23:54;189.90;;;180.80;;
11269;SDS011;5692;48.956;9.200;2022-09-03T07:26:24;186.80;;;177.85;;
11269;SDS011;5692;48.956;9.200;2022-09-03T07:28:52;190.45;;;181.32;;
11269;SDS011;5692;48.956;9.200;2022-09-03T07:31:22;192.82;;;183.60;;
11269;SDS011;5692;48.956;9.200;2022-09-03T07:36:24;189.88;;;180.80;;
11269;SDS011;5692;48.956;9.200;2022-09-03T07:38:50;186.77;;;177.85;;
11269;SDS011;5692;48.956;9.200;2022-09-03T07:41:19;194.32;;;185.02;;
11269;SDS011;5692;48.956;9.200;2022-09-03T07:43:45;173.35;;;165.05;;
11269;SDS011;5692;48.956;9.200;2022-09-03T07:46:15;186.13;;;177.23;;
11269;SDS011;5692;48.956;9.200;2022-09-03T07:48:53;182.70;;;173.95;;
11269;SDS011;5692;48.956;9.200;2022-09-03T07:51:22;176.85;;;168.35;;
11269;SDS011;5692;48.956;9.200;2022-09-03T07:53:51;188.63;;;179.63;;
11269;SDS011;5692;48.956;9.200;2022-09-03T07:56:17;183.65;;;174.85;;
11269;SDS011;5692;48.956;9.200;2022-09-03T07:58:43;192.45;;;183.25;;
11269;SDS011;5692;48.956;9.200;2022-09-03T08:01:28;184.05;;;175.25;;
11269;SDS011;5692;48.956;9.200;2022-09-03T08:03:55;193.85;;;184.55;;
11269;SDS011;5692;48.956;9.200;2022-09-03T08:06:24;204.77;;;194.98;;
11269;SDS011;5692;48.956;9.200;2022-09-03T08:08:54;192.55;;;183.35;;
11269;SDS011;5692;48.956;9.200;2022-09-03T08:11:22;206.20;;;196.32;;
11269;SDS011;5692;48.956;9.200;2022-09-03T08:16:27;226.45;;;215.63;;
11269;SDS011;5692;48.956;9.200;2022-09-03T08:18:53;214.30;;;204.05;;
11269;SDS011;5692;48.956;9.200;2022-09-03T08:21:20;230.77;;;219.73;;
11269;SDS011;5692;48.956;9.200;2022-09-03T08:23:48;238.23;;;226.82;;
11269;SDS011;5692;48.956;9.200;2022-09-03T08:26:15;246.90;;;235.10;;
11269;SDS011;5692;48.956;9.200;2022-09-03T08:28:41;236.63;;;225.32;;
11269;SDS011;5692;48.956;9.200;2022-09-03T08:31:09;215.23;;;204.95;;
11269;SDS011;5692;48.956;9.200;2022-09-03T08:33:36;216.60;;;206.20;;
11269;SDS011;5692;48.956;9.200;2022-09-03T08:36:08;219.13;;;208.63;;
11269;SDS011;5692;48.956;9.200;2022-09-03T08:38:40;195.32;;;185.98;;
11269;SDS011;5692;48.956;9.200;2022-09-03T08:41:11;198.95;;;189.43;;
11269;SDS011;5692;48.956;9.200;2022-09-03T08:46:26;205.63;;;195.77;;
11269;SDS011;5692;48.956;9.200;2022-09-03T08:48:56;208.75;;;198.75;;
11269;SDS011;5692;48.956;9.200;2022-09-03T08:51:23;224.77;;;214.00;;
11269;SDS011;5692;48.956;9.200;2022-09-03T08:53:52;221.18;;;210.57;;
11269;SDS011;5692;48.956;9.200;2022-09-03T08:56:23;207.00;;;197.10;;
11269;SDS011;5692;48.956;9.200;2022-09-03T08:58:49;217.25;;;206.85;;
11269;SDS011;5692;48.956;9.200;2022-09-03T09:01:25;207.50;;;197.57;;
11269;SDS011;5692;48.956;9.200;2022-09-03T09:22:40;215.00;;;204.70;;
11269;SDS011;5692;48.956;9.200;2022-09-03T09:25:09;217.57;;;207.18;;
11269;SDS011;5692;48.956;9.200;2022-09-03T09:27:40;222.32;;;211.70;;
11269;SDS011;5692;48.956;9.200;2022-09-03T09:30:10;220.38;;;209.85;;
11269;SDS011;5692;48.956;9.200;2022-09-03T09:32:38;219.73;;;209.23;;
11269;SDS011;5692;48.956;9.200;2022-09-03T09:35:07;212.80;;;202.65;;
11269;SDS011;5692;48.956;9.200;2022-09-03T09:37:44;222.75;;;212.07;;
11269;SDS011;5692;48.956;9.200;2022-09-03T09:40:11;223.70;;;213.00;;
11269;SDS011;5692;48.956;9.200;2022-09-03T09:42:50;234.60;;;223.40;;
11269;SDS011;5692;48.956;9.200;2022-09-03T09:45:22;226.15;;;215.35;;
11269;SDS011;5692;48.956;9.200;2022-09-03T09:47:49;209.43;;;199.40;;
11269;SDS011;5692;48.956;9.200;2022-09-03T09:50:19;227.75;;;216.85;;
11269;SDS011;5692;48.956;9.200;2022-09-03T09:52:46;230.32;;;219.32;;
11269;SDS011;5692;48.956;9.200;2022-09-03T09:55:16;221.10;;;210.50;;
11269;SDS011;5692;48.956;9.200;2022-09-03T09:57:43;215.32;;;205.02;;
11269;SDS011;5692;48.956;9.200;2022-09-03T10:00:13;206.80;;;196.90;;
11269;SDS011;5692;48.956;9.200;2022-09-03T10:02:47;222.48;;;211.82;;
11269;SDS011;5692;48.956;9.200;2022-09-03T10:05:24;223.60;;;212.90;;
11269;SDS011;5692;48.956;9.200;2022-09-03T10:07:54;219.05;;;208.57;;
11269;SDS011;5692;48.956;9.200;2022-09-03T10:10:22;238.00;;;226.60;;
11269;SDS011;5692;48.956;9.200;2022-09-03T10:12:55;237.18;;;225.85;;
11269;SDS011;5692;48.956;9.200;2022-09-03T10:20:32;226.63;;;215.80;;
11269;SDS011;5692;48.956;9.200;2022-09-03T10:23:06;227.13;;;216.27;;
11269;SDS011;5692;48.956;9.200;2022-09-03T10:28:16;230.73;;;219.73;;
11269;SDS011;5692;48.956;9.200;2022-09-03T10:33:23;230.00;;;219.00;;
11269;SDS011;5692;48.956;9.200;2022-09-03T10:36:04;220.03;;;209.50;;
11269;SDS011;5692;48.956;9.200;2022-09-03T10:38:41;233.03;;;221.90;;
11269;SDS011;5692;48.956;9.200;2022-09-03T10:41:29;234.27;;;223.07;;
11269;SDS011;5692;48.956;9.200;2022-09-03T10:46:40;219.13;;;208.67;;
11269;SDS011;5692;48.956;9.200;2022-09-03T11:02:21;245.93;;;234.17;;
11269;SDS011;5692;48.956;9.200;2022-09-03T11:07:24;226.83;;;215.97;;
11269;SDS011;5692;48.956;9.200;2022-09-03T11:10:00;235.80;;;224.50;;
11269;SDS011;5692;48.956;9.200;2022-09-03T11:12:34;244.77;;;233.07;;
11269;SDS011;5692;48.956;9.200;2022-09-03T11:15:02;245.27;;;233.53;;
11269;SDS011;5692;48.956;9.200;2022-09-03T11:17:33;244.43;;;232.77;;
11269;SDS011;5692;48.956;9.200;2022-09-03T11:20:10;229.40;;;218.43;;
11269;SDS011;5692;48.956;9.200;2022-09-03T11:22:37;230.90;;;219.90;;
11269;SDS011;5692;48.956;9.200;2022-09-03T11:25:04;229.20;;;218.23;;
11269;SDS011;5692;48.956;9.200;2022-09-03T11:32:40;232.37;;;221.27;;
11269;SDS011;5692;48.956;9.200;2022-09-03T11:35:24;251.27;;;239.27;;
11269;SDS011;5692;48.956;9.200;2022-09-03T11:37:52;246.27;;;234.50;;
11269;SDS011;5692;48.956;9.200;2022-09-03T11:40:19;235.90;;;224.63;;
11269;SDS011;5692;48.956;9.200;2022-09-03T11:42:48;241.57;;;230.00;;
11269;SDS011;5692;48.956;9.200;2022-09-03T11:47:47;240.97;;;229.43;;
11269;SDS011;5692;48.956;9.200;2022-09-03T11:52:44;244.50;;;232.80;;
11269;SDS011;5692;48.956;9.200;2022-09-03T11:55:10;255.27;;;243.07;;
11269;SDS011;5692;48.956;9.200;2022-09-03T11:57:40;249.70;;;237.77;;
11269;SDS011;5692;48.956;9.200;2022-09-03T12:02:35;251.27;;;239.27;;
11269;SDS011;5692;48.956;9.200;2022-09-03T12:07:54;242.60;;;231.00;;
11269;SDS011;5692;48.956;9.200;2022-09-03T12:10:29;237.60;;;226.20;;
11269;SDS011;5692;48.956;9.200;2022-09-03T12:17:56;222.20;;;211.57;;
11269;SDS011;5692;48.956;9.200;2022-09-03T12:20:42;233.07;;;221.93;;
11269;SDS011;5692;48.956;9.200;2022-09-03T12:23:09;229.43;;;218.45;;
11269;SDS011;5692;48.956;9.200;2022-09-03T12:25:41;231.48;;;220.40;;
11269;SDS011;5692;48.956;9.200;2022-09-03T12:28:11;224.82;;;214.07;;
11269;SDS011;5692;48.956;9.200;2022-09-03T12:30:47;223.48;;;212.77;;
11269;SDS011;5692;48.956;9.200;2022-09-03T12:33:16;212.23;;;202.07;;
11269;SDS011;5692;48.956;9.200;2022-09-03T12:36:03;224.32;;;213.63;;
11269;SDS011;5692;48.956;9.200;2022-09-03T12:38:28;218.15;;;207.70;;
11269;SDS011;5692;48.956;9.200;2022-09-03T12:40:56;228.02;;;217.10;;
11269;SDS011;5692;48.956;9.200;2022-09-03T12:43:26;226.63;;;215.77;;
11269;SDS011;5692;48.956;9.200;2022-09-03T12:45:55;239.52;;;228.07;;
11269;SDS011;5692;48.956;9.200;2022-09-03T12:48:21;227.98;;;217.07;;
11269;SDS011;5692;48.956;9.200;2022-09-03T12:50:59;229.68;;;218.68;;
11269;SDS011;5692;48.956;9.200;2022-09-03T12:53:26;236.00;;;224.70;;
11269;SDS011;5692;48.956;9.200;2022-09-03T12:55:54;221.13;;;210.57;;
11269;SDS011;5692;48.956;9.200;2022-09-03T13:03:24;245.65;;;233.90;;
11269;SDS011;5692;48.956;9.200;2022-09-03T13:05:56;220.93;;;210.35;;
11269;SDS011;5692;48.956;9.200;2022-09-03T13:08:36;249.25;;;237.35;;
11269;SDS011;5692;48.956;9.200;2022-09-03T13:11:04;234.63;;;223.43;;
11269;SDS011;5692;48.956;9.200;2022-09-03T13:13:35;237.07;;;225.75;;
11269;SDS011;5692;48.956;9.200;2022-09-03T13:26:49;222.25;;;211.63;;
11269;SDS011;5692;48.956;9.200;2022-09-03T13:32:01;218.23;;;207.77;;
11269;SDS011;5692;48.956;9.200;2022-09-03T13:34:32;212.77;;;202.57;;
11269;SDS011;5692;48.956;9.200;2022-09-03T13:37:09;224.40;;;213.68;;
11269;SDS011;5692;48.956;9.200;2022-09-03T13:39:40;226.50;;;215.70;;
11269;SDS011;5692;48.956;9.200;2022-09-03T13:42:19;225.48;;;214.68;;
11269;SDS011;5692;48.956;9.200;2022-09-03T13:47:41;229.52;;;218.52;;
11269;SDS011;5692;48.956;9.200;2022-09-03T13:50:29;207.70;;;197.77;;
11269;SDS011;5692;48.956;9.200;2022-09-03T13:55:44;227.25;;;216.38;;
11269;SDS011;5692;48.956;9.200;2022-09-03T13:58:28;236.10;;;224.80;;
11269;SDS011;5692;48.956;9.200;2022-09-03T14:06:04;232.25;;;221.13;;
11269;SDS011;5692;48.956;9.200;2022-09-03T14:08:41;227.30;;;216.43;;
11269;SDS011;5692;48.956;9.200;2022-09-03T14:16:23;223.52;;;212.82;;
11269;SDS011;5692;48.956;9.200;2022-09-03T14:21:59;238.93;;;227.50;;
11269;SDS011;5692;48.956;9.200;2022-09-03T14:24:29;244.88;;;233.18;;
11269;SDS011;5692;48.956;9.200;2022-09-03T14:26:59;236.15;;;224.85;;
11269;SDS011;5692;48.956;9.200;2022-09-03T14:29:29;226.40;;;215.57;;
11269;SDS011;5692;48.956;9.200;2022-09-03T14:39:32;231.98;;;220.88;;
11269;SDS011;5692;48.956;9.200;2022-09-03T14:47:00;230.80;;;219.75;;
11269;SDS011;5692;48.956;9.200;2022-09-03T14:52:32;221.20;;;210.60;;
11269;SDS011;5692;48.956;9.200;2022-09-03T15:00:17;214.35;;;204.07;;
11269;SDS011;5692;48.956;9.200;2022-09-03T15:07:52;208.90;;;198.90;;
11269;SDS011;5692;48.956;9.200;2022-09-03T15:10:35;208.77;;;198.80;;
11269;SDS011;5692;48.956;9.200;2022-09-03T15:13:09;212.77;;;202.57;;
11269;SDS011;5692;48.956;9.200;2022-09-03T15:18:15;217.38;;;206.98;;
11269;SDS011;5692;48.956;9.200;2022-09-03T15:20:52;227.77;;;216.88;;
11269;SDS011;5692;48.956;9.200;2022-09-03T15:43:57;205.77;;;195.93;;
11269;SDS011;5692;48.956;9.200;2022-09-03T15:49:11;214.80;;;204.50;;
11269;SDS011;5692;48.956;9.200;2022-09-03T15:52:01;209.73;;;199.68;;
11269;SDS011;5692;48.956;9.200;2022-09-03T15:57:25;221.18;;;210.60;;
11269;SDS011;5692;48.956;9.200;2022-09-03T15:59:54;210.25;;;200.18;;
11269;SDS011;5692;48.956;9.200;2022-09-03T16:02:41;214.68;;;204.40;;
11269;SDS011;5692;48.956;9.200;2022-09-03T16:05:15;206.98;;;197.07;;
11269;SDS011;5692;48.956;9.200;2022-09-03T16:10:45;201.75;;;192.10;;
11269;SDS011;5692;48.956;9.200;2022-09-03T16:15:48;212.43;;;202.23;;
11269;SDS011;5692;48.956;9.200;2022-09-03T16:20:55;207.10;;;197.20;;
11269;SDS011;5692;48.956;9.200;2022-09-03T16:23:29;216.90;;;206.52;;
11269;SDS011;5692;48.956;9.200;2022-09-03T16:26:02;197.45;;;188.00;;
11269;SDS011;5692;48.956;9.200;2022-09-03T16:28:45;204.50;;;194.70;;
11269;SDS011;5692;48.956;9.200;2022-09-03T16:31:16;193.88;;;184.60;;
11269;SDS011;5692;48.956;9.200;2022-09-03T16:36:23;205.15;;;195.35;;
11269;SDS011;5692;48.956;9.200;2022-09-03T16:38:56;201.27;;;191.65;;
11269;SDS011;5692;48.956;9.200;2022-09-03T16:41:45;204.32;;;194.55;;
11269;SDS011;5692;48.956;9.200;2022-09-03T16:44:22;204.60;;;194.80;;
11269;SDS011;5692;48.956;9.200;2022-09-03T16:46:59;194.85;;;185.52;;
11269;SDS011;5692;48.956;9.200;2022-09-03T16:52:00;198.90;;;189.40;;
11269;SDS011;5692;48.956;9.200;2022-09-03T17:00:03;209.80;;;199.77;;
11269;SDS011;5692;48.956;9.200;2022-09-03T17:15:33;196.70;;;187.30;;
11269;SDS011;5692;48.956;9.200;2022-09-03T17:18:25;199.63;;;190.07;;
11269;SDS011;5692;48.956;9.200;2022-09-03T17:26:09;194.05;;;184.75;;
11269;SDS011;5692;48.956;9.200;2022-09-03T17:36:09;199.27;;;189.73;;
11269;SDS011;5692;48.956;9.200;2022-09-03T17:46:33;187.23;;;178.25;;
11269;SDS011;5692;48.956;9.200;2022-09-03T17:49:05;199.13;;;189.57;;
11269;SDS011;5692;48.956;9.200;2022-09-03T17:51:46;203.00;;;193.30;;
11269;SDS011;5692;48.956;9.200;2022-09-03T17:54:19;210.70;;;200.63;;
11269;SDS011;5692;48.956;9.200;2022-09-03T17:56:59;198.20;;;188.70;;
11269;SDS011;5692;48.956;9.200;2022-09-03T18:02:19;198.20;;;188.70;;
11269;SDS011;5692;48.956;9.200;2022-09-03T18:04:47;198.07;;;188.57;;
11269;SDS011;5692;48.956;9.200;2022-09-03T18:07:19;196.02;;;186.63;;
11269;SDS011;5692;48.956;9.200;2022-09-03T18:09:57;196.55;;;187.15;;
11269;SDS011;5692;48.956;9.200;2022-09-03T18:18:09;193.60;;;184.30;;
11269;SDS011;5692;48.956;9.200;2022-09-03T18:21:19;192.63;;;183.43;;
11269;SDS011;5692;48.956;9.200;2022-09-03T18:23:57;187.63;;;178.63;;
11269;SDS011;5692;48.956;9.200;2022-09-03T18:26:51;201.70;;;192.02;;
11269;SDS011;5692;48.956;9.200;2022-09-03T18:29:42;194.82;;;185.50;;
11269;SDS011;5692;48.956;9.200;2022-09-03T18:32:28;200.65;;;191.05;;
11269;SDS011;5692;48.956;9.200;2022-09-03T18:35:16;207.35;;;197.45;;
11269;SDS011;5692;48.956;9.200;2022-09-03T18:38:02;192.82;;;183.63;;
11269;SDS011;5692;48.956;9.200;2022-09-03T18:40:55;183.43;;;174.63;;
11269;SDS011;5692;48.956;9.200;2022-09-03T18:43:44;193.65;;;184.38;;
11269;SDS011;5692;48.956;9.200;2022-09-03T18:46:40;195.75;;;186.38;;
11269;SDS011;5692;48.956;9.200;2022-09-03T18:49:35;203.63;;;193.88;;
11269;SDS011;5692;48.956;9.200;2022-09-03T19:04:49;202.10;;;192.43;;
11269;SDS011;5692;48.956;9.200;2022-09-03T19:07:08;184.00;;;175.20;;
11269;SDS011;5692;48.956;9.200;2022-09-03T19:10:16;198.45;;;188.95;;
11269;SDS011;5692;48.956;9.200;2022-09-03T19:21:55;198.15;;;188.65;;
11269;SDS011;5692;48.956;9.200;2022-09-03T19:24:53;204.07;;;194.30;;
11269;SDS011;5692;48.956;9.200;2022-09-03T19:36:22;183.45;;;174.68;;
11269;SDS011;5692;48.956;9.200;2022-09-03T19:42:24;191.60;;;182.40;;
11269;SDS011;5692;48.956;9.200;2022-09-03T19:45:14;193.52;;;184.27;;
11269;SDS011;5692;48.956;9.200;2022-09-03T19:48:12;192.43;;;183.23;;
11269;SDS011;5692;48.956;9.200;2022-09-03T19:54:03;191.48;;;182.27;;
11269;SDS011;5692;48.956;9.200;2022-09-03T19:56:50;208.50;;;198.50;;
11269;SDS011;5692;48.956;9.200;2022-09-03T19:59:37;200.18;;;190.60;;
11269;SDS011;5692;48.956;9.200;2022-09-03T20:02:23;193.85;;;184.57;;
11269;SDS011;5692;48.956;9.200;2022-09-03T20:05:26;189.82;;;180.75;;
11269;SDS011;5692;48.956;9.200;2022-09-03T20:08:12;195.18;;;185.82;;
11269;SDS011;5692;48.956;9.200;2022-09-03T20:10:58;192.15;;;182.95;;
11269;SDS011;5692;48.956;9.200;2022-09-03T20:13:25;194.95;;;185.63;;
11269;SDS011;5692;48.956;9.200;2022-09-03T20:16:02;190.75;;;181.63;;
11269;SDS011;5692;48.956;9.200;2022-09-03T20:18:41;199.95;;;190.38;;